createdAt,value
2022-11-17T00:00:10.404Z,9.88
2022-11-17T00:02:37.402Z,9.10
2022-11-17T00:05:04.336Z,9.98
2022-11-17T00:07:31.087Z,9.77
2022-11-17T00:09:57.711Z,8.90
2022-11-17T00:12:42.719Z,8.82
2022-11-17T00:15:09.462Z,8.93
2022-11-17T00:17:36.146Z,9.07
2022-11-17T00:20:21.561Z,8.80
2022-11-17T00:22:48.758Z,9.07
2022-11-17T00:25:15.399Z,9.45
2022-11-17T00:27:41.982Z,8.35
2022-11-17T00:30:09.148Z,7.30
2022-11-17T00:32:54.063Z,10.13
2022-11-17T00:35:20.632Z,8.05
2022-11-17T00:38:05.752Z,9.07
2022-11-17T00:42:58.976Z,8.98
2022-11-17T00:45:25.564Z,7.95
2022-11-17T00:47:52.199Z,8.48
2022-11-17T00:50:18.757Z,7.40
2022-11-17T00:52:45.691Z,7.55
2022-11-17T00:55:12.339Z,6.72
2022-11-17T00:57:38.938Z,7.85
2022-11-17T01:00:06.115Z,7.75
2022-11-17T01:02:32.733Z,7.03
2022-11-17T01:04:59.338Z,7.43
2022-11-17T01:07:26.064Z,7.55
2022-11-17T01:09:52.815Z,6.65
2022-11-17T01:12:19.382Z,7.05
2022-11-17T01:14:45.987Z,6.43
2022-11-17T01:17:12.554Z,7.60
2022-11-17T01:19:39.241Z,6.55
2022-11-17T01:22:06.757Z,7.20
2022-11-17T01:24:33.555Z,7.00
2022-11-17T01:27:00.355Z,6.25
2022-11-17T01:29:26.919Z,6.95
2022-11-17T01:31:53.565Z,6.78
2022-11-17T01:34:20.295Z,5.90
2022-11-17T01:37:05.641Z,6.55
2022-11-17T01:39:32.413Z,6.00
2022-11-17T01:42:09.597Z,5.78
2022-11-17T01:44:36.342Z,6.15
2022-11-17T01:47:13.638Z,6.15
2022-11-17T01:49:40.247Z,6.60
2022-11-17T01:52:08.117Z,5.95
2022-11-17T01:54:37.792Z,6.88
2022-11-17T01:57:08.874Z,5.97
2022-11-17T01:59:39.642Z,5.60
2022-11-17T02:02:07.207Z,5.75
2022-11-17T02:05:00.592Z,5.18
2022-11-17T02:07:33.443Z,5.28
2022-11-17T02:10:02.092Z,5.70
2022-11-17T02:12:31.338Z,6.30
2022-11-17T02:14:58.256Z,5.55
2022-11-17T02:17:34.817Z,5.20
2022-11-17T02:20:09.675Z,5.68
2022-11-17T02:25:21.700Z,5.55
2022-11-17T02:28:16.960Z,5.25
2022-11-17T02:30:53.913Z,5.10
2022-11-17T02:33:38.803Z,5.40
2022-11-17T02:36:14.719Z,5.30
2022-11-17T02:38:48.834Z,5.35
2022-11-17T02:41:23.199Z,4.63
2022-11-17T02:44:06.185Z,5.05
2022-11-17T02:46:47.815Z,5.25
2022-11-17T02:49:30.095Z,5.28
2022-11-17T02:51:58.365Z,5.40
2022-11-17T02:54:28.576Z,5.18
2022-11-17T02:56:55.380Z,5.60
2022-11-17T02:59:29.405Z,4.47
2022-11-17T03:02:24.024Z,4.87
2022-11-17T03:05:14.696Z,7.95
2022-11-17T03:08:06.168Z,5.00
2022-11-17T03:10:52.832Z,5.38
2022-11-17T03:13:57.200Z,4.75
2022-11-17T03:16:37.765Z,5.32
2022-11-17T03:19:18.167Z,4.40
2022-11-17T03:21:57.120Z,4.78
2022-11-17T03:24:25.801Z,4.68
2022-11-17T03:27:00.595Z,4.78
2022-11-17T03:29:29.326Z,5.63
2022-11-17T03:32:00.916Z,4.40
2022-11-17T03:34:30.309Z,4.43
2022-11-17T03:37:02.627Z,4.70
2022-11-17T03:39:35.253Z,5.97
2022-11-17T03:42:27.699Z,4.63
2022-11-17T03:44:57.891Z,4.55
2022-11-17T03:47:26.505Z,5.40
2022-11-17T03:50:13.815Z,4.25
2022-11-17T03:52:40.943Z,4.88
2022-11-17T03:55:08.185Z,4.15
2022-11-17T03:57:34.725Z,4.40
2022-11-17T04:00:05.416Z,4.65
2022-11-17T04:02:45.737Z,4.07
2022-11-17T04:05:13.495Z,3.95
2022-11-17T04:07:42.553Z,4.28
2022-11-17T04:10:17.299Z,4.07
2022-11-17T04:13:03.179Z,3.85
2022-11-17T04:15:48.314Z,3.75
2022-11-17T04:20:42.180Z,3.70
2022-11-17T04:23:12.259Z,4.32
2022-11-17T04:26:00.915Z,3.90
2022-11-17T04:28:37.609Z,4.00
2022-11-17T04:31:16.325Z,3.88
2022-11-17T04:33:57.329Z,3.72
2022-11-17T04:36:26.116Z,3.80
2022-11-17T04:38:54.944Z,3.45
2022-11-17T04:41:41.328Z,3.53
2022-11-17T04:44:09.130Z,4.05
2022-11-17T04:46:36.947Z,3.53
2022-11-17T04:49:04.586Z,3.88
2022-11-17T04:51:32.151Z,4.05
2022-11-17T04:53:59.509Z,3.70
2022-11-17T04:56:27.278Z,3.67
2022-11-17T04:58:54.166Z,3.50
2022-11-17T05:01:22.346Z,3.80
2022-11-17T05:03:59.740Z,4.10
2022-11-17T05:06:28.073Z,3.78
2022-11-17T05:08:55.903Z,3.45
2022-11-17T05:11:46.359Z,3.63
2022-11-17T05:14:14.896Z,3.65
2022-11-17T05:17:04.570Z,3.72
2022-11-17T05:19:39.100Z,3.45
2022-11-17T05:22:26.587Z,3.10
2022-11-17T05:24:53.430Z,3.58
2022-11-17T05:27:21.091Z,3.58
2022-11-17T05:29:47.656Z,3.20
2022-11-17T05:32:14.286Z,3.35
2022-11-17T05:34:40.896Z,3.63
2022-11-17T05:37:07.571Z,3.65
2022-11-17T05:39:34.186Z,3.38
2022-11-17T05:42:00.871Z,3.30
2022-11-17T05:44:27.490Z,3.15
2022-11-17T05:46:54.080Z,3.40
2022-11-17T05:49:20.983Z,2.95
2022-11-17T05:51:52.472Z,5.35
2022-11-17T05:54:19.955Z,3.63
2022-11-17T05:56:56.984Z,3.33
2022-11-17T05:59:33.885Z,3.50
2022-11-17T06:02:14.489Z,3.17
2022-11-17T06:04:41.233Z,4.85
2022-11-17T06:07:07.988Z,3.13
2022-11-17T06:09:37.620Z,3.28
2022-11-17T06:12:06.424Z,4.57
2022-11-17T06:14:34.468Z,4.38
2022-11-17T06:17:08.239Z,3.75
2022-11-17T06:19:39.737Z,4.13
2022-11-17T06:22:14.027Z,3.35
2022-11-17T06:24:44.728Z,4.15
2022-11-17T06:27:12.573Z,3.50
2022-11-17T06:29:44.010Z,2.92
2022-11-17T06:32:17.408Z,3.28
2022-11-17T06:34:49.177Z,3.00
2022-11-17T06:37:18.771Z,2.97
2022-11-17T06:39:45.366Z,2.95
2022-11-17T06:42:12.122Z,2.85
2022-11-17T06:44:39.277Z,3.13
2022-11-17T06:47:05.986Z,3.05
2022-11-17T06:49:32.633Z,2.92
2022-11-17T06:51:59.190Z,2.90
2022-11-17T06:54:25.919Z,2.95
2022-11-17T06:56:52.604Z,3.38
2022-11-17T06:59:19.240Z,4.55
2022-11-17T07:01:45.844Z,3.10
2022-11-17T07:04:12.593Z,2.97
2022-11-17T07:06:39.457Z,4.25
2022-11-17T07:09:06.196Z,3.35
2022-11-17T07:11:34.632Z,3.13
2022-11-17T07:14:01.269Z,4.13
2022-11-17T07:16:29.298Z,3.45
2022-11-17T07:18:55.966Z,5.47
2022-11-17T07:21:22.625Z,3.13
2022-11-17T07:23:49.299Z,3.30
2022-11-17T07:26:15.963Z,3.95
2022-11-17T07:28:42.641Z,4.60
2022-11-17T07:31:09.648Z,3.95
2022-11-17T07:33:36.778Z,5.30
2022-11-17T07:36:09.681Z,3.63
2022-11-17T07:38:37.942Z,4.68
2022-11-17T07:41:05.567Z,5.13
2022-11-17T07:43:33.412Z,4.85
2022-11-17T07:46:06.269Z,4.10
2022-11-17T07:48:33.591Z,3.67
2022-11-17T07:51:01.229Z,3.70
2022-11-17T07:53:28.108Z,14.55
2022-11-17T07:55:55.395Z,5.78
2022-11-17T07:58:22.084Z,6.07
2022-11-17T08:00:48.761Z,6.13
2022-11-17T08:03:15.693Z,7.22
2022-11-17T08:05:43.836Z,5.07
2022-11-17T08:08:10.838Z,6.80
2022-11-17T08:10:37.466Z,4.95
2022-11-17T08:13:04.183Z,5.82
2022-11-17T08:15:31.671Z,5.28
2022-11-17T08:18:00.302Z,5.30
2022-11-17T08:20:29.308Z,5.50
2022-11-17T08:22:56.415Z,6.13
2022-11-17T08:25:25.085Z,4.45
2022-11-17T08:27:55.277Z,6.57
2022-11-17T08:30:22.434Z,6.75
2022-11-17T08:32:52.040Z,37.95
2022-11-17T08:35:20.751Z,62.83
2022-11-17T08:37:47.408Z,39.30
2022-11-17T08:40:14.575Z,26.55
2022-11-17T08:42:41.317Z,20.05
2022-11-17T08:45:08.389Z,19.73
2022-11-17T08:47:35.115Z,24.13
2022-11-17T08:50:01.847Z,21.00
2022-11-17T08:52:28.630Z,22.13
2022-11-17T08:54:55.508Z,21.70
2022-11-17T08:57:22.570Z,21.98
2022-11-17T08:59:49.512Z,21.33
2022-11-17T09:02:16.918Z,22.45
2022-11-17T09:04:46.071Z,21.67
2022-11-17T09:07:12.847Z,18.55
2022-11-17T09:09:39.709Z,22.33
2022-11-17T09:12:06.423Z,19.25
2022-11-17T09:14:33.160Z,20.10
2022-11-17T09:16:59.906Z,21.00
2022-11-17T09:19:26.851Z,20.00
2022-11-17T09:21:53.503Z,20.40
2022-11-17T09:24:20.288Z,19.10
2022-11-17T09:26:46.933Z,17.08
2022-11-17T09:29:13.579Z,18.23
2022-11-17T09:31:40.416Z,17.50
2022-11-17T09:34:07.184Z,16.92
2022-11-17T09:36:34.060Z,18.80
2022-11-17T09:39:01.058Z,16.73
2022-11-17T09:41:40.928Z,16.90
2022-11-17T09:44:07.516Z,16.77
2022-11-17T09:46:50.593Z,17.30
2022-11-17T09:49:17.179Z,17.45
2022-11-17T09:51:45.496Z,15.00
2022-11-17T09:54:31.990Z,16.10
2022-11-17T09:56:59.458Z,16.98
2022-11-17T09:59:27.593Z,15.65
2022-11-17T10:01:54.282Z,14.48
2022-11-17T10:04:20.976Z,14.40
2022-11-17T10:06:50.099Z,14.57
2022-11-17T10:09:28.851Z,15.02
2022-11-17T10:12:01.624Z,14.52
2022-11-17T10:14:30.168Z,14.82
2022-11-17T10:16:58.777Z,13.98
2022-11-17T10:19:31.024Z,13.75
2022-11-17T10:22:06.609Z,16.95
2022-11-17T10:24:33.237Z,20.52
2022-11-17T10:26:59.871Z,19.85
2022-11-17T10:29:26.530Z,16.98
2022-11-17T10:31:53.150Z,14.95
2022-11-17T10:34:41.494Z,16.23
2022-11-17T10:37:15.342Z,14.82
2022-11-17T10:39:42.898Z,14.32
2022-11-17T10:42:24.841Z,13.57
2022-11-17T10:44:53.207Z,15.20
2022-11-17T10:47:40.101Z,14.10
2022-11-17T10:50:18.928Z,12.43
2022-11-17T10:52:46.324Z,13.48
2022-11-17T10:55:19.681Z,13.18
2022-11-17T10:58:11.761Z,13.88
2022-11-17T11:00:38.739Z,13.23
2022-11-17T11:03:16.373Z,13.65
2022-11-17T11:06:22.943Z,11.82
2022-11-17T11:08:55.787Z,12.80
2022-11-17T11:11:43.671Z,11.77
2022-11-17T11:14:19.595Z,11.55
2022-11-17T11:16:48.534Z,11.55
2022-11-17T11:19:17.088Z,10.82
2022-11-17T11:22:05.199Z,11.88
2022-11-17T11:24:37.606Z,12.40
2022-11-17T11:27:22.598Z,11.68
2022-11-17T11:29:55.190Z,10.02
2022-11-17T11:32:33.727Z,11.68
2022-11-17T11:35:17.184Z,10.57
2022-11-17T11:37:54.621Z,11.18
2022-11-17T11:40:36.390Z,10.38
2022-11-17T11:43:26.016Z,9.52
2022-11-17T11:46:00.407Z,10.00
2022-11-17T11:48:28.306Z,9.07
2022-11-17T11:50:58.943Z,9.82
2022-11-17T11:53:28.351Z,9.90
2022-11-17T11:56:17.988Z,8.27
2022-11-17T11:58:49.704Z,9.10
2022-11-17T12:01:18.864Z,9.52
2022-11-17T12:03:48.607Z,8.32
2022-11-17T12:07:13.807Z,9.68
2022-11-17T12:09:42.928Z,9.55
2022-11-17T12:12:15.215Z,8.23
2022-11-17T12:15:11.903Z,8.40
2022-11-17T12:17:57.371Z,8.00
2022-11-17T12:20:49.966Z,8.40
2022-11-17T12:23:44.360Z,8.10
2022-11-17T12:26:21.523Z,8.90
2022-11-17T12:28:48.209Z,8.27
2022-11-17T12:31:43.302Z,9.10
2022-11-17T12:34:25.168Z,8.02
2022-11-17T12:37:21.755Z,8.27
2022-11-17T12:39:55.289Z,9.05
2022-11-17T12:42:21.887Z,9.52
2022-11-17T12:44:56.820Z,10.27
2022-11-17T12:50:16.018Z,9.88
2022-11-17T12:53:12.010Z,9.05
2022-11-17T12:55:58.565Z,61.58
2022-11-17T12:58:50.885Z,31.83
2022-11-17T13:01:54.013Z,22.02
2022-11-17T13:04:25.229Z,17.45
2022-11-17T13:07:00.867Z,15.13
2022-11-17T13:09:30.043Z,17.75
2022-11-17T13:12:05.524Z,16.15
2022-11-17T13:14:33.923Z,16.25
2022-11-17T13:17:01.093Z,16.33
2022-11-17T13:19:32.814Z,15.15
2022-11-17T13:22:17.302Z,15.25
2022-11-17T13:24:46.701Z,15.77
2022-11-17T13:27:29.562Z,16.73
2022-11-17T13:30:14.437Z,13.77
2022-11-17T13:32:42.139Z,30.80
2022-11-17T13:35:31.109Z,14.75
2022-11-17T13:38:03.846Z,14.65
2022-11-17T13:40:31.676Z,13.98
2022-11-17T13:42:58.831Z,13.02
2022-11-17T13:45:25.808Z,11.70
2022-11-17T13:47:54.389Z,11.45
2022-11-17T13:50:23.062Z,10.15
2022-11-17T13:52:58.954Z,12.52
2022-11-17T13:55:26.782Z,23.50
2022-11-17T13:58:05.101Z,18.63
2022-11-17T14:00:33.136Z,15.45
2022-11-17T14:03:03.253Z,14.18
2022-11-17T14:05:34.169Z,13.23
2022-11-17T14:08:22.913Z,12.70
2022-11-17T14:10:49.663Z,16.65
2022-11-17T14:13:20.409Z,10.55
2022-11-17T14:15:53.849Z,12.40
2022-11-17T14:18:28.494Z,11.27
2022-11-17T14:21:08.745Z,11.23
2022-11-17T14:23:35.851Z,20.60
2022-11-17T14:26:02.517Z,22.45
2022-11-17T14:28:29.185Z,18.02
2022-11-17T14:30:57.981Z,16.92
2022-11-17T14:33:24.863Z,13.57
2022-11-17T14:35:54.537Z,13.18
2022-11-17T14:38:21.945Z,13.95
2022-11-17T14:40:53.106Z,12.27
2022-11-17T14:43:21.089Z,13.65
2022-11-17T14:45:48.831Z,12.95
2022-11-17T14:48:19.219Z,13.52
2022-11-17T14:50:47.129Z,11.55
2022-11-17T14:53:13.761Z,12.43
2022-11-17T14:55:40.427Z,11.15
2022-11-17T14:58:07.252Z,11.48
2022-11-17T15:00:33.873Z,10.80
2022-11-17T15:03:00.870Z,11.70
2022-11-17T15:05:27.578Z,10.77
2022-11-17T15:07:56.457Z,10.77
2022-11-17T15:10:23.254Z,10.50
2022-11-17T15:12:49.847Z,11.23
2022-11-17T15:15:17.865Z,10.45
2022-11-17T15:17:44.602Z,10.23
2022-11-17T15:20:11.822Z,10.70
2022-11-17T15:22:38.444Z,10.45
2022-11-17T15:25:05.517Z,10.75
2022-11-17T15:27:32.179Z,9.80
2022-11-17T15:29:58.765Z,13.63
2022-11-17T15:32:25.413Z,14.90
2022-11-17T15:34:52.090Z,10.98
2022-11-17T15:37:18.908Z,11.10
2022-11-17T15:39:45.612Z,12.65
2022-11-17T15:42:12.240Z,10.95
2022-11-17T15:44:38.828Z,11.10
2022-11-17T15:47:06.151Z,12.10
2022-11-17T15:49:32.758Z,11.45
2022-11-17T15:51:59.410Z,11.30
2022-11-17T15:54:26.276Z,11.48
2022-11-17T15:56:52.952Z,10.95
2022-11-17T15:59:19.971Z,11.27
2022-11-17T16:01:46.918Z,10.60
2022-11-17T16:04:16.004Z,10.82
2022-11-17T16:06:44.448Z,10.23
2022-11-17T16:09:12.135Z,9.90
2022-11-17T16:11:39.562Z,12.25
2022-11-17T16:14:06.541Z,9.43
2022-11-17T16:16:37.787Z,9.55
2022-11-17T16:19:05.074Z,9.23
2022-11-17T16:21:31.749Z,9.82
2022-11-17T16:24:00.815Z,9.52
2022-11-17T16:26:28.246Z,8.80
2022-11-17T16:29:06.512Z,9.32
2022-11-17T16:31:35.005Z,8.75
2022-11-17T16:34:06.749Z,8.85
2022-11-17T16:36:36.863Z,8.65
2022-11-17T16:39:05.593Z,8.10
2022-11-17T16:41:34.240Z,8.50
2022-11-17T16:44:01.410Z,9.93
2022-11-17T16:46:30.070Z,8.50
2022-11-17T16:48:57.649Z,9.25
2022-11-17T16:51:27.143Z,7.97
2022-11-17T16:53:59.022Z,8.45
2022-11-17T16:56:26.570Z,8.32
2022-11-17T16:58:54.750Z,8.07
2022-11-17T17:01:26.924Z,7.85
2022-11-17T17:03:57.731Z,8.02
2022-11-17T17:06:24.946Z,8.23
2022-11-17T17:08:55.992Z,7.80
2022-11-17T17:11:22.729Z,7.28
2022-11-17T17:13:49.598Z,7.68
2022-11-17T17:16:17.846Z,7.70
2022-11-17T17:18:44.579Z,7.70
2022-11-17T17:21:17.059Z,7.30
2022-11-17T17:23:45.582Z,7.50
2022-11-17T17:26:16.804Z,7.68
2022-11-17T17:28:44.856Z,7.35
2022-11-17T17:31:18.056Z,8.15
2022-11-17T17:33:47.931Z,7.88
2022-11-17T17:36:16.705Z,7.55
2022-11-17T17:38:43.815Z,7.93
2022-11-17T17:41:13.981Z,7.57
2022-11-17T17:43:41.627Z,7.07
2022-11-17T17:46:15.458Z,7.13
2022-11-17T17:48:44.104Z,6.72
2022-11-17T17:51:12.721Z,6.65
2022-11-17T17:53:39.768Z,7.30
2022-11-17T17:56:08.628Z,7.40
2022-11-17T17:58:42.166Z,7.25
2022-11-17T18:01:16.937Z,10.32
2022-11-17T18:06:13.870Z,9.07
2022-11-17T18:08:40.538Z,11.48
2022-11-17T18:11:10.284Z,17.48
2022-11-17T18:13:39.010Z,16.63
2022-11-17T18:16:08.459Z,18.20
2022-11-17T18:18:36.112Z,23.48
2022-11-17T18:21:08.410Z,20.98
2022-11-17T18:23:37.006Z,22.73
2022-11-17T18:26:10.962Z,23.10
2022-11-17T18:28:40.718Z,23.53
2022-11-17T18:31:08.194Z,24.88
2022-11-17T18:33:38.546Z,23.83
2022-11-17T18:36:07.996Z,28.83
2022-11-17T18:38:36.455Z,33.33
2022-11-17T18:41:10.541Z,30.42
2022-11-17T18:43:37.724Z,35.45
2022-11-17T18:46:06.972Z,29.92
2022-11-17T18:48:35.156Z,27.80
2022-11-17T18:51:19.074Z,26.73
2022-11-17T18:53:46.718Z,28.15
2022-11-17T18:56:14.959Z,26.17
2022-11-17T18:58:43.092Z,31.10
2022-11-17T19:01:14.646Z,25.02
2022-11-17T19:03:42.953Z,25.17
2022-11-17T19:06:10.551Z,25.67
2022-11-17T19:08:37.700Z,25.63
2022-11-17T19:11:06.584Z,26.77
2022-11-17T19:13:35.071Z,23.02
2022-11-17T19:16:08.786Z,22.70
2022-11-17T19:18:35.832Z,25.65
2022-11-17T19:21:07.772Z,22.15
2022-11-17T19:23:39.344Z,23.05
2022-11-17T19:26:10.964Z,22.13
2022-11-17T19:28:39.252Z,21.63
2022-11-17T19:31:08.106Z,20.65
2022-11-17T19:33:35.842Z,19.35
2022-11-17T19:36:12.731Z,21.35
2022-11-17T19:38:40.663Z,18.13
2022-11-17T19:41:12.461Z,15.93
2022-11-17T19:43:44.894Z,17.70
2022-11-17T19:46:14.806Z,17.90
2022-11-17T19:48:41.957Z,16.77
2022-11-17T19:51:18.536Z,17.00
2022-11-17T19:53:45.933Z,17.05
2022-11-17T19:56:13.170Z,17.40
2022-11-17T19:58:41.180Z,18.20
2022-11-17T20:01:12.823Z,15.73
2022-11-17T20:03:40.490Z,18.42
2022-11-17T20:06:09.053Z,16.63
2022-11-17T20:08:35.747Z,15.32
2022-11-17T20:11:13.579Z,16.30
2022-11-17T20:13:41.439Z,15.68
2022-11-17T20:16:12.597Z,15.80
2022-11-17T20:18:41.812Z,14.10
2022-11-17T20:21:09.765Z,14.57
2022-11-17T20:23:37.645Z,14.50
2022-11-17T20:26:08.923Z,15.38
2022-11-17T20:28:36.721Z,13.77
2022-11-17T20:31:11.714Z,14.50
2022-11-17T20:33:39.451Z,14.55
2022-11-17T20:36:07.733Z,13.90
2022-11-17T20:38:35.956Z,12.57
2022-11-17T20:41:03.470Z,14.93
2022-11-17T20:43:30.136Z,13.63
2022-11-17T20:45:57.364Z,13.18
2022-11-17T20:48:24.983Z,14.32
2022-11-17T20:51:04.847Z,12.13
2022-11-17T20:53:32.012Z,12.77
2022-11-17T20:55:59.732Z,12.27
2022-11-17T20:58:27.109Z,11.60
2022-11-17T21:00:54.256Z,11.48
2022-11-17T21:03:21.050Z,12.20
2022-11-17T21:05:58.417Z,11.40
2022-11-17T21:08:27.226Z,10.50
2022-11-17T21:10:56.008Z,10.52
2022-11-17T21:13:22.735Z,11.57
2022-11-17T21:16:03.339Z,12.07
2022-11-17T21:18:30.039Z,10.50
2022-11-17T21:21:00.347Z,11.63
2022-11-17T21:23:28.149Z,12.60
2022-11-17T21:25:54.837Z,11.60
2022-11-17T21:28:21.834Z,10.43
2022-11-17T21:30:48.504Z,10.65
2022-11-17T21:33:15.118Z,11.75
2022-11-17T21:35:41.713Z,11.43
2022-11-17T21:38:10.679Z,10.48
2022-11-17T21:40:37.525Z,11.57
2022-11-17T21:43:04.538Z,11.43
2022-11-17T21:45:32.884Z,10.43
2022-11-17T21:47:59.796Z,10.52
2022-11-17T21:50:26.541Z,9.52
2022-11-17T21:52:53.184Z,9.43
2022-11-17T21:55:19.841Z,8.90
2022-11-17T21:57:50.095Z,9.93
2022-11-17T22:00:17.386Z,10.60
2022-11-17T22:02:44.089Z,10.18
2022-11-17T22:05:10.867Z,9.07
2022-11-17T22:07:37.486Z,10.65
2022-11-17T22:10:04.410Z,10.55
2022-11-17T22:12:31.085Z,9.25
2022-11-17T22:14:57.775Z,9.65
2022-11-17T22:17:24.675Z,9.07
2022-11-17T22:19:51.298Z,9.48
2022-11-17T22:22:17.913Z,9.68
2022-11-17T22:24:49.590Z,9.45
2022-11-17T22:27:16.720Z,8.75
2022-11-17T22:29:43.416Z,10.55
2022-11-17T22:32:10.092Z,9.25
2022-11-17T22:34:36.810Z,8.88
2022-11-17T22:37:03.515Z,13.10
2022-11-17T22:39:30.372Z,10.02
2022-11-17T22:41:57.086Z,9.50
2022-11-17T22:44:23.829Z,9.07
2022-11-17T22:46:50.573Z,9.43
2022-11-17T22:49:17.582Z,7.65
2022-11-17T22:52:03.015Z,8.45
2022-11-17T22:56:57.994Z,7.60
2022-11-17T22:59:29.888Z,7.75
2022-11-17T23:01:56.632Z,8.07
2022-11-17T23:04:23.497Z,8.52
2022-11-17T23:06:50.154Z,7.13
2022-11-17T23:09:17.424Z,8.18
2022-11-17T23:11:44.621Z,8.52
2022-11-17T23:14:13.298Z,7.70
2022-11-17T23:16:40.392Z,7.57
2022-11-17T23:19:09.468Z,7.63
2022-11-17T23:21:36.253Z,8.68
2022-11-17T23:24:04.120Z,8.27
2022-11-17T23:26:30.853Z,7.32
2022-11-17T23:28:58.271Z,7.55
2022-11-17T23:31:27.110Z,7.40
2022-11-17T23:33:53.935Z,7.35
2022-11-17T23:36:22.007Z,6.75
2022-11-17T23:38:49.890Z,8.95
2022-11-17T23:41:19.260Z,7.35
2022-11-17T23:43:46.026Z,7.57
2022-11-17T23:46:15.076Z,7.18
2022-11-17T23:48:42.510Z,8.63
2022-11-17T23:51:12.355Z,7.22
2022-11-17T23:53:39.347Z,8.35
2022-11-17T23:56:06.986Z,8.95
2022-11-17T23:58:33.946Z,7.43
